Lia Ievoli — IBDX — position and weather

sailwx.info

Track history (hours):
 
Tides and Currents Weather Stations Pressure Air Temp Water Temp Dewpoint Dewpoint Depression Visibility Wind Speed Wind Dir Waves Ship Positions

Lia Ievoli

Last reported at 2018-Jan-24 09:28 UTC. Time now 2018-Jan-24 09:54 UTC.
Position N 45°27' E 012°14'.

Length 131 m; draft 5.3 m.

Type: Ship. MMSI: 247346000.

Date/timePositionNaut miles runAvg speedWind from/ knotsBaromVisibWave heightAir tempDewpointWater temp
2018-Jan-24 09:28N 45°27' E 012°14'0 0.0
2018-Jan-24 08:58N 45°27' E 012°14'0 0.0
2018-Jan-24 08:28N 45°27' E 012°14'0 0.0
2018-Jan-24 07:58N 45°27' E 012°14'0 0.0
2018-Jan-24 07:28N 45°27' E 012°14'0 0.0
2018-Jan-24 06:58N 45°27' E 012°14'0 0.0
2018-Jan-24 06:28N 45°27' E 012°14'0 0.0
2018-Jan-24 05:58N 45°27' E 012°14'0 0.0
2018-Jan-24 05:28N 45°27' E 012°14'0 0.0
2018-Jan-24 04:58N 45°27' E 012°14'0 0.0
2018-Jan-24 04:28N 45°27' E 012°14'0 0.0
2018-Jan-24 03:58N 45°27' E 012°14'0 0.0
2018-Jan-24 03:28N 45°27' E 012°14'0 0.0
2018-Jan-24 02:58N 45°27' E 012°14'0 0.0
2018-Jan-24 02:28N 45°27' E 012°14'0 0.0
2018-Jan-24 01:58N 45°27' E 012°14'0 0.0
2018-Jan-24 01:28N 45°27' E 012°14'0 0.0
2018-Jan-24 00:58N 45°27' E 012°14'0 0.0
2018-Jan-24 00:28N 45°27' E 012°14'0 0.0
2018-Jan-23 23:58N 45°27' E 012°14'0 0.0
2018-Jan-23 23:28N 45°27' E 012°14'0 0.0
2018-Jan-23 22:58N 45°27' E 012°14'0 0.0
2018-Jan-23 22:28N 45°27' E 012°14'0 0.0
2018-Jan-23 21:58N 45°27' E 012°14'0 0.0
2018-Jan-23 21:28N 45°27' E 012°14'0 0.0
2018-Jan-23 20:58N 45°27' E 012°14'0 0.0
2018-Jan-23 20:28N 45°27' E 012°14'0 0.0
2018-Jan-23 19:58N 45°27' E 012°14'0 0.0
2018-Jan-23 19:28N 45°27' E 012°14'0 0.0
2018-Jan-23 18:58N 45°27' E 012°14'0 0.0
2018-Jan-23 18:28N 45°27' E 012°14'0 0.0
2018-Jan-23 17:58N 45°27' E 012°14'0 0.0
2018-Jan-23 17:28N 45°27' E 012°14'0 0.1
2018-Jan-23 16:59N 45°27' E 012°14'2 3.3
2018-Jan-23 16:30N 45°26' E 012°16'4 8.3
2018-Jan-23 16:00N 45°22' E 012°15'4 8.7
2018-Jan-23 15:30N 45°20' E 012°21'2 4.8
2018-Jan-23 15:00N 45°20' E 012°24'1 1.6
2018-Jan-23 14:30N 45°20' E 012°25'0 0.0
2018-Jan-23 14:00N 45°20' E 012°25'0 0.0
2018-Jan-23 13:30N 45°20' E 012°25'0 0.0
2018-Jan-23 13:00N 45°20' E 012°25'0 0.0
2018-Jan-23 12:30N 45°20' E 012°25'0 0.0
2018-Jan-23 12:00N 45°20' E 012°25'0 0.0
2018-Jan-23 11:30N 45°20' E 012°25'0 0.0
2018-Jan-23 11:01N 45°20' E 012°25'0 0.0
2018-Jan-23 10:30N 45°20' E 012°25'0 0.0
2018-Jan-23 10:00N 45°20' E 012°25'0 0.0
2018-Jan-23 09:30N 45°20' E 012°25'0 0.0
2018-Jan-23 09:00N 45°20' E 012°25'0 0.0
2018-Jan-23 08:30N 45°20' E 012°25'0 0.0
2018-Jan-23 08:00N 45°20' E 012°25'0 0.0
2018-Jan-23 07:30N 45°20' E 012°25'0 0.0
2018-Jan-23 07:00N 45°20' E 012°25'0 0.0
2018-Jan-23 06:30N 45°20' E 012°25'0 0.0
2018-Jan-23 06:00N 45°20' E 012°25'0 0.0
2018-Jan-23 05:30N 45°20' E 012°25'0 0.0
2018-Jan-23 05:00N 45°20' E 012°25'0 0.0
2018-Jan-23 04:30N 45°20' E 012°25'0 0.0
2018-Jan-23 04:00N 45°20' E 012°25'0 0.0
2018-Jan-23 03:30N 45°20' E 012°25'0 0.0
2018-Jan-23 03:00N 45°20' E 012°25'0 0.0
2018-Jan-23 02:30N 45°20' E 012°25'0 0.0
2018-Jan-23 02:00N 45°20' E 012°25'0 0.0
2018-Jan-23 01:30N 45°20' E 012°25'0 0.0
2018-Jan-23 01:00N 45°20' E 012°25'0 0.0
2018-Jan-23 00:30N 45°20' E 012°25'0 0.0
2018-Jan-23 00:00N 45°20' E 012°25'0 0.0
2018-Jan-22 23:30N 45°20' E 012°25'0 0.0
2018-Jan-22 23:00N 45°20' E 012°25'0 0.0
2018-Jan-22 22:28N 45°20' E 012°25'0 0.0
2018-Jan-22 22:00N 45°20' E 012°25'0 0.0
2018-Jan-22 21:30N 45°20' E 012°25'0 0.0
2018-Jan-22 21:00N 45°20' E 012°25'0 0.0
2018-Jan-22 20:30N 45°20' E 012°25'0 0.0
2018-Jan-22 20:00N 45°20' E 012°25'0 0.0
2018-Jan-22 19:30N 45°20' E 012°25'0 0.0
2018-Jan-22 18:59N 45°20' E 012°25'0 0.0
2018-Jan-22 18:30N 45°20' E 012°25'0 0.0
2018-Jan-22 18:00N 45°20' E 012°25'0 0.0
2018-Jan-22 17:30N 45°20' E 012°25'0 0.0
2018-Jan-22 17:00N 45°20' E 012°25'0 0.0
2018-Jan-22 16:30N 45°20' E 012°25'0 0.0
2018-Jan-22 16:00N 45°20' E 012°25'0 0.0
2018-Jan-22 15:30N 45°20' E 012°25'0 0.0
2018-Jan-22 15:00N 45°20' E 012°25'0 0.0
2018-Jan-22 14:31N 45°20' E 012°25'0 0.0
2018-Jan-22 14:00N 45°20' E 012°25'0 0.0
2018-Jan-22 13:30N 45°20' E 012°25'0 0.0
2018-Jan-22 13:00N 45°20' E 012°25'0 0.0
2018-Jan-22 12:30N 45°20' E 012°25'0 0.0
2018-Jan-22 12:00N 45°20' E 012°25'0 0.0
2018-Jan-22 11:30N 45°20' E 012°25'0 0.0
2018-Jan-22 11:00N 45°20' E 012°25'0 0.0
2018-Jan-22 10:30N 45°20' E 012°25'0 0.0
2018-Jan-22 10:00N 45°20' E 012°25'0 0.0
2018-Jan-22 09:30N 45°20' E 012°25'0 0.1
2018-Jan-22 09:00N 45°20' E 012°25'0 0.0
2018-Jan-22 08:30N 45°20' E 012°25'0 0.0
2018-Jan-22 08:00N 45°20' E 012°25'0 0.0
2018-Jan-22 07:30N 45°20' E 012°25'0 0.0
2018-Jan-22 07:00N 45°20' E 012°25'0 0.0
2018-Jan-22 06:30N 45°20' E 012°25'0 0.0
2018-Jan-22 06:00N 45°20' E 012°25'0 0.0
2018-Jan-22 05:30N 45°20' E 012°25'0 0.0
2018-Jan-22 05:00N 45°20' E 012°25'0 0.0
2018-Jan-22 04:30N 45°20' E 012°25'0 0.0
2018-Jan-22 04:00N 45°20' E 012°25'0 0.0
2018-Jan-22 03:30N 45°20' E 012°25'0 0.0
2018-Jan-22 03:00N 45°20' E 012°25'0 0.0
2018-Jan-22 02:30N 45°20' E 012°25'0 0.0
2018-Jan-22 02:00N 45°20' E 012°25'0 0.1
2018-Jan-22 01:30N 45°20' E 012°25'0 0.0
2018-Jan-22 01:00N 45°20' E 012°25'0 0.0
2018-Jan-22 00:30N 45°20' E 012°25'0 0.0
2018-Jan-22 00:00N 45°20' E 012°25'0 0.0
2018-Jan-21 23:30N 45°20' E 012°25'0 0.1
2018-Jan-21 23:00N 45°20' E 012°25'0 0.1
2018-Jan-21 22:30N 45°20' E 012°25'0 0.0
2018-Jan-21 22:00N 45°20' E 012°25'0 0.0
2018-Jan-21 21:30N 45°20' E 012°25'0 0.0
2018-Jan-21 21:00N 45°20' E 012°25'0 0.1
2018-Jan-21 20:30N 45°20' E 012°25'0 0.0
2018-Jan-21 20:00N 45°20' E 012°25'0 0.0
2018-Jan-21 19:29N 45°20' E 012°25'0 0.0
2018-Jan-21 19:00N 45°20' E 012°25'0 0.0
2018-Jan-21 18:31N 45°20' E 012°25'0 0.1
2018-Jan-21 18:00N 45°20' E 012°25'0 0.0
2018-Jan-21 17:30N 45°20' E 012°25'0 0.0
2018-Jan-21 17:00N 45°20' E 012°25'0 0.0
2018-Jan-21 16:30N 45°20' E 012°25'0 0.0
2018-Jan-21 16:00N 45°20' E 012°25'0 0.0
2018-Jan-21 15:30N 45°20' E 012°25'0 0.0
2018-Jan-21 15:00N 45°20' E 012°25'0 0.0
2018-Jan-21 14:30N 45°20' E 012°25'0 0.1
2018-Jan-21 14:00N 45°20' E 012°25'0 0.1
2018-Jan-21 13:30N 45°20' E 012°25'0 0.1
2018-Jan-21 13:00N 45°20' E 012°25'0 0.1
2018-Jan-21 12:30N 45°20' E 012°25'0 0.0
2018-Jan-21 12:00N 45°20' E 012°25'0 0.0
2018-Jan-21 11:31N 45°20' E 012°25'0 0.0
2018-Jan-21 11:00N 45°20' E 012°25'0 0.0
2018-Jan-21 10:30N 45°20' E 012°25'0 0.0
2018-Jan-21 10:01N 45°20' E 012°25'0 0.0
2018-Jan-21 09:30N 45°20' E 012°25'0 0.0
2018-Jan-21 09:00N 45°20' E 012°25'0 0.0
2018-Jan-21 08:30N 45°20' E 012°25'0 0.1
2018-Jan-21 08:00N 45°20' E 012°25'0 0.0
2018-Jan-21 07:30N 45°20' E 012°25'0 0.0
2018-Jan-21 07:00N 45°20' E 012°25'0 0.1
2018-Jan-21 06:30N 45°20' E 012°25'0 0.0
2018-Jan-21 06:00N 45°20' E 012°25'0 0.0
2018-Jan-21 05:30N 45°20' E 012°25'0 0.0
2018-Jan-21 05:00N 45°20' E 012°25'0 0.0
2018-Jan-21 04:30N 45°20' E 012°25'0 0.0
2018-Jan-21 04:00N 45°20' E 012°25'0 0.0
2018-Jan-21 03:30N 45°20' E 012°25'0 0.0
2018-Jan-21 03:00N 45°20' E 012°25'0 0.0
2018-Jan-21 02:30N 45°20' E 012°25'0 0.0
2018-Jan-21 02:00N 45°20' E 012°25'0 0.1
2018-Jan-21 01:30N 45°20' E 012°25'0 0.1
2018-Jan-21 01:00N 45°20' E 012°25'0 0.0
2018-Jan-21 00:30N 45°20' E 012°25'0 0.0
2018-Jan-21 00:00N 45°20' E 012°25'0 0.0
2018-Jan-20 23:30N 45°20' E 012°25'0 0.0
2018-Jan-20 23:00N 45°20' E 012°25'0 0.0
2018-Jan-20 22:30N 45°20' E 012°25'0 0.1
2018-Jan-20 21:59N 45°20' E 012°25'0 0.0
2018-Jan-20 21:30N 45°20' E 012°25'0 0.2
2018-Jan-20 21:00N 45°20' E 012°26'4 8.2
2018-Jan-20 20:30N 45°17' E 012°30'5 9.6
2018-Jan-20 20:00N 45°15' E 012°36'5 9.9
2018-Jan-20 19:30N 45°12' E 012°41'510.1
2018-Jan-20 19:00N 45°09' E 012°47'4 9.0
2018-Jan-20 18:30N 45°05' E 012°50'4 7.8
2018-Jan-20 18:00N 45°01' E 012°52'4 7.7
2018-Jan-20 17:30N 44°58' E 012°55'4 7.7
2018-Jan-20 17:00N 44°54' E 012°57'4 8.3
2018-Jan-20 16:30N 44°50' E 012°60'5 9.1
2018-Jan-20 16:00N 44°52' E 013°06'5 9.3
2018-Jan-20 15:30N 44°54' E 013°12'3 6.0
2018-Jan-20 15:00N 44°57' E 013°13'5 9.8
2018-Jan-20 14:30N 45°01' E 013°09'510.2
2018-Jan-20 14:00N 45°05' E 013°04'510.1
2018-Jan-20 13:30N 45°09' E 013°02'510.2
2018-Jan-20 13:00N 45°14' E 012°60'510.2
2018-Jan-20 12:30N 45°19' E 012°58'4 8.8
2018-Jan-20 12:00N 45°19' E 012°52'510.0
2018-Jan-20 11:30N 45°18' E 012°45'612.5
2018-Jan-20 11:00N 45°16' E 012°36'611.1
2018-Jan-20 10:30N 45°16' E 012°28'713.0
2018-Jan-20 10:00N 45°20' E 012°21'4 8.7
2018-Jan-20 09:29N 45°22' E 012°15'4 8.0
2018-Jan-20 09:00N 45°26' E 012°15'1 2.3
2018-Jan-20 08:28N 45°26' E 012°13'0 0.0
2018-Jan-20 07:58N 45°26' E 012°13'0 0.0
2018-Jan-20 07:29N 45°26' E 012°13'0 0.0
2018-Jan-20 06:58N 45°26' E 012°13'0 0.0
2018-Jan-20 06:29N 45°26' E 012°13'0 0.0
2018-Jan-20 05:58N 45°26' E 012°13'0 0.0
2018-Jan-20 05:28N 45°26' E 012°13'0 0.0
2018-Jan-20 04:55N 45°26' E 012°13'0 0.0
2018-Jan-20 04:28N 45°26' E 012°13'0 0.0
2018-Jan-20 03:55N 45°26' E 012°13'0 0.0
2018-Jan-20 03:28N 45°26' E 012°13'0 0.0
2018-Jan-20 02:58N 45°26' E 012°13'0 0.0
2018-Jan-20 02:28N 45°26' E 012°13'0 0.0
2018-Jan-20 01:55N 45°26' E 012°13'0 0.0
2018-Jan-20 01:28N 45°26' E 012°13'0 0.0
2018-Jan-20 00:55N 45°26' E 012°13'0 0.0
2018-Jan-20 00:28N 45°26' E 012°13'0 0.0
2018-Jan-19 23:55N 45°26' E 012°13'0 0.0
2018-Jan-19 23:25N 45°26' E 012°13'0 0.0
2018-Jan-19 22:58N 45°26' E 012°13'0 0.0
2018-Jan-19 22:25N 45°26' E 012°13'0 0.0
2018-Jan-19 21:58N 45°26' E 012°13'0 0.0
2018-Jan-19 21:25N 45°26' E 012°13'0 0.0
2018-Jan-19 20:58N 45°26' E 012°13'0 0.0
2018-Jan-19 20:28N 45°26' E 012°13'0 0.0
2018-Jan-19 19:58N 45°26' E 012°13'0 0.0
2018-Jan-19 19:25N 45°26' E 012°13'0 0.0
2018-Jan-19 18:58N 45°26' E 012°13'0 0.0
2018-Jan-19 18:25N 45°26' E 012°13'0 0.0
2018-Jan-19 17:55N 45°26' E 012°13'0 0.0
2018-Jan-19 16:28N 45°26' E 012°13'0 0.0
2018-Jan-19 15:55N 45°26' E 012°13'0 0.0
2018-Jan-19 15:25N 45°26' E 012°13'0 0.0
2018-Jan-19 14:58N 45°26' E 012°13'0 0.0
2018-Jan-19 14:28N 45°26' E 012°13'0 0.0
2018-Jan-19 13:58N 45°26' E 012°13'0 0.0
2018-Jan-19 13:25N 45°26' E 012°13'0 0.0
2018-Jan-19 12:43N 45°26' E 012°13'0 0.0
2018-Jan-19 12:28N 45°26' E 012°13'0 0.0
2018-Jan-19 11:58N 45°26' E 012°13'0 0.0
2018-Jan-19 11:19N 45°26' E 012°13'0 0.0
2018-Jan-19 10:58N 45°26' E 012°13'0 0.0
2018-Jan-19 10:28N 45°26' E 012°13'0 0.0
2018-Jan-19 09:58N 45°26' E 012°13'0 0.0
2018-Jan-19 09:25N 45°26' E 012°13'0 0.0
2018-Jan-19 08:58N 45°26' E 012°13'0 0.0
2018-Jan-19 08:28N 45°26' E 012°13'0 0.0
2018-Jan-19 07:55N 45°26' E 012°13'0 0.0
2018-Jan-19 07:25N 45°26' E 012°13'0 0.0
2018-Jan-19 06:55N 45°26' E 012°13'0 0.5
2018-Jan-19 06:30N 45°26' E 012°13'2 3.6
2018-Jan-19 06:00N 45°26' E 012°16'5 9.3
2018-Jan-19 05:30N 45°21' E 012°16'510.3
2018-Jan-19 05:00N 45°20' E 012°23'2 3.1
2018-Jan-19 04:29N 45°20' E 012°25'0 0.1
2018-Jan-19 03:59N 45°20' E 012°25'0 0.0
2018-Jan-19 03:29N 45°20' E 012°25'0 0.0
2018-Jan-19 02:59N 45°20' E 012°25'0 0.0
2018-Jan-19 02:29N 45°20' E 012°25'0 0.0
2018-Jan-19 01:59N 45°20' E 012°25'0 0.1
2018-Jan-19 01:30N 45°20' E 012°25'3 6.1
2018-Jan-19 01:01N 45°18' E 012°29'612.5
2018-Jan-19 00:30N 45°15' E 012°36'612.5
2018-Jan-19 00:01N 45°11' E 012°43'612.0
2018-Jan-18 23:31N 45°07' E 012°49'612.7
2018-Jan-18 23:01N 45°01' E 012°52'612.6
2018-Jan-18 22:30N 44°55' E 012°56'612.6
2018-Jan-18 22:00N 44°49' E 012°59'612.7
2018-Jan-18 21:30N 44°43' E 013°02'712.8
2018-Jan-18 21:00N 44°37' E 013°05'612.9
2018-Jan-18 20:31N 44°31' E 013°08'712.8
2018-Jan-18 19:56N 44°24' E 013°12'  
Track history (hours):
 
Tides and Currents Weather Stations Pressure Air Temp Water Temp Dewpoint Dewpoint Depression Visibility Wind Speed Wind Dir Waves Ship Positions

Lia Ievoli

Last reported at 2018-Jan-24 09:28 UTC. Time now 2018-Jan-24 09:54 UTC.
Position N 45°27' E 012°14'.

Length 131 m; draft 5.3 m.

Type: Ship. MMSI: 247346000.

Date/timePositionNaut miles runAvg speedWind from/ knotsBaromVisibWave heightAir tempDewpointWater temp
2018-Jan-24 09:28N 45°27' E 012°14'0 0.0
2018-Jan-24 08:58N 45°27' E 012°14'0 0.0
2018-Jan-24 08:28N 45°27' E 012°14'0 0.0
2018-Jan-24 07:58N 45°27' E 012°14'0 0.0
2018-Jan-24 07:28N 45°27' E 012°14'0 0.0
2018-Jan-24 06:58N 45°27' E 012°14'0 0.0
2018-Jan-24 06:28N 45°27' E 012°14'0 0.0
2018-Jan-24 05:58N 45°27' E 012°14'0 0.0
2018-Jan-24 05:28N 45°27' E 012°14'0 0.0
2018-Jan-24 04:58N 45°27' E 012°14'0 0.0
2018-Jan-24 04:28N 45°27' E 012°14'0 0.0
2018-Jan-24 03:58N 45°27' E 012°14'0 0.0
2018-Jan-24 03:28N 45°27' E 012°14'0 0.0
2018-Jan-24 02:58N 45°27' E 012°14'0 0.0
2018-Jan-24 02:28N 45°27' E 012°14'0 0.0
2018-Jan-24 01:58N 45°27' E 012°14'0 0.0
2018-Jan-24 01:28N 45°27' E 012°14'0 0.0
2018-Jan-24 00:58N 45°27' E 012°14'0 0.0
2018-Jan-24 00:28N 45°27' E 012°14'0 0.0
2018-Jan-23 23:58N 45°27' E 012°14'0 0.0
2018-Jan-23 23:28N 45°27' E 012°14'0 0.0
2018-Jan-23 22:58N 45°27' E 012°14'0 0.0
2018-Jan-23 22:28N 45°27' E 012°14'0 0.0
2018-Jan-23 21:58N 45°27' E 012°14'0 0.0
2018-Jan-23 21:28N 45°27' E 012°14'0 0.0
2018-Jan-23 20:58N 45°27' E 012°14'0 0.0
2018-Jan-23 20:28N 45°27' E 012°14'0 0.0
2018-Jan-23 19:58N 45°27' E 012°14'0 0.0
2018-Jan-23 19:28N 45°27' E 012°14'0 0.0
2018-Jan-23 18:58N 45°27' E 012°14'0 0.0
2018-Jan-23 18:28N 45°27' E 012°14'0 0.0
2018-Jan-23 17:58N 45°27' E 012°14'0 0.0
2018-Jan-23 17:28N 45°27' E 012°14'0 0.1
2018-Jan-23 16:59N 45°27' E 012°14'2 3.3
2018-Jan-23 16:30N 45°26' E 012°16'4 8.3
2018-Jan-23 16:00N 45°22' E 012°15'4 8.7
2018-Jan-23 15:30N 45°20' E 012°21'2 4.8
2018-Jan-23 15:00N 45°20' E 012°24'1 1.6
2018-Jan-23 14:30N 45°20' E 012°25'0 0.0
2018-Jan-23 14:00N 45°20' E 012°25'0 0.0
2018-Jan-23 13:30N 45°20' E 012°25'0 0.0
2018-Jan-23 13:00N 45°20' E 012°25'0 0.0
2018-Jan-23 12:30N 45°20' E 012°25'0 0.0
2018-Jan-23 12:00N 45°20' E 012°25'0 0.0
2018-Jan-23 11:30N 45°20' E 012°25'0 0.0
2018-Jan-23 11:01N 45°20' E 012°25'0 0.0
2018-Jan-23 10:30N 45°20' E 012°25'0 0.0
2018-Jan-23 10:00N 45°20' E 012°25'0 0.0
2018-Jan-23 09:30N 45°20' E 012°25'0 0.0
2018-Jan-23 09:00N 45°20' E 012°25'0 0.0
2018-Jan-23 08:30N 45°20' E 012°25'0 0.0
2018-Jan-23 08:00N 45°20' E 012°25'0 0.0
2018-Jan-23 07:30N 45°20' E 012°25'0 0.0
2018-Jan-23 07:00N 45°20' E 012°25'0 0.0
2018-Jan-23 06:30N 45°20' E 012°25'0 0.0
2018-Jan-23 06:00N 45°20' E 012°25'0 0.0
2018-Jan-23 05:30N 45°20' E 012°25'0 0.0
2018-Jan-23 05:00N 45°20' E 012°25'0 0.0
2018-Jan-23 04:30N 45°20' E 012°25'0 0.0
2018-Jan-23 04:00N 45°20' E 012°25'0 0.0
2018-Jan-23 03:30N 45°20' E 012°25'0 0.0
2018-Jan-23 03:00N 45°20' E 012°25'0 0.0
2018-Jan-23 02:30N 45°20' E 012°25'0 0.0
2018-Jan-23 02:00N 45°20' E 012°25'0 0.0
2018-Jan-23 01:30N 45°20' E 012°25'0 0.0
2018-Jan-23 01:00N 45°20' E 012°25'0 0.0
2018-Jan-23 00:30N 45°20' E 012°25'0 0.0
2018-Jan-23 00:00N 45°20' E 012°25'0 0.0
2018-Jan-22 23:30N 45°20' E 012°25'0 0.0
2018-Jan-22 23:00N 45°20' E 012°25'0 0.0
2018-Jan-22 22:28N 45°20' E 012°25'0 0.0
2018-Jan-22 22:00N 45°20' E 012°25'0 0.0
2018-Jan-22 21:30N 45°20' E 012°25'0 0.0
2018-Jan-22 21:00N 45°20' E 012°25'0 0.0
2018-Jan-22 20:30N 45°20' E 012°25'0 0.0
2018-Jan-22 20:00N 45°20' E 012°25'0 0.0
2018-Jan-22 19:30N 45°20' E 012°25'0 0.0
2018-Jan-22 18:59N 45°20' E 012°25'0 0.0
2018-Jan-22 18:30N 45°20' E 012°25'0 0.0
2018-Jan-22 18:00N 45°20' E 012°25'0 0.0
2018-Jan-22 17:30N 45°20' E 012°25'0 0.0
2018-Jan-22 17:00N 45°20' E 012°25'0 0.0
2018-Jan-22 16:30N 45°20' E 012°25'0 0.0
2018-Jan-22 16:00N 45°20' E 012°25'0 0.0
2018-Jan-22 15:30N 45°20' E 012°25'0 0.0
2018-Jan-22 15:00N 45°20' E 012°25'0 0.0
2018-Jan-22 14:31N 45°20' E 012°25'0 0.0
2018-Jan-22 14:00N 45°20' E 012°25'0 0.0
2018-Jan-22 13:30N 45°20' E 012°25'0 0.0
2018-Jan-22 13:00N 45°20' E 012°25'0 0.0
2018-Jan-22 12:30N 45°20' E 012°25'0 0.0
2018-Jan-22 12:00N 45°20' E 012°25'0 0.0
2018-Jan-22 11:30N 45°20' E 012°25'0 0.0
2018-Jan-22 11:00N 45°20' E 012°25'0 0.0
2018-Jan-22 10:30N 45°20' E 012°25'0 0.0
2018-Jan-22 10:00N 45°20' E 012°25'0 0.0
2018-Jan-22 09:30N 45°20' E 012°25'0 0.1
2018-Jan-22 09:00N 45°20' E 012°25'0 0.0
2018-Jan-22 08:30N 45°20' E 012°25'0 0.0
2018-Jan-22 08:00N 45°20' E 012°25'0 0.0
2018-Jan-22 07:30N 45°20' E 012°25'0 0.0
2018-Jan-22 07:00N 45°20' E 012°25'0 0.0
2018-Jan-22 06:30N 45°20' E 012°25'0 0.0
2018-Jan-22 06:00N 45°20' E 012°25'0 0.0
2018-Jan-22 05:30N 45°20' E 012°25'0 0.0
2018-Jan-22 05:00N 45°20' E 012°25'0 0.0
2018-Jan-22 04:30N 45°20' E 012°25'0 0.0
2018-Jan-22 04:00N 45°20' E 012°25'0 0.0
2018-Jan-22 03:30N 45°20' E 012°25'0 0.0
2018-Jan-22 03:00N 45°20' E 012°25'0 0.0
2018-Jan-22 02:30N 45°20' E 012°25'0 0.0
2018-Jan-22 02:00N 45°20' E 012°25'0 0.1
2018-Jan-22 01:30N 45°20' E 012°25'0 0.0
2018-Jan-22 01:00N 45°20' E 012°25'0 0.0
2018-Jan-22 00:30N 45°20' E 012°25'0 0.0
2018-Jan-22 00:00N 45°20' E 012°25'0 0.0
2018-Jan-21 23:30N 45°20' E 012°25'0 0.1
2018-Jan-21 23:00N 45°20' E 012°25'0 0.1
2018-Jan-21 22:30N 45°20' E 012°25'0 0.0
2018-Jan-21 22:00N 45°20' E 012°25'0 0.0
2018-Jan-21 21:30N 45°20' E 012°25'0 0.0
2018-Jan-21 21:00N 45°20' E 012°25'0 0.1
2018-Jan-21 20:30N 45°20' E 012°25'0 0.0
2018-Jan-21 20:00N 45°20' E 012°25'0 0.0
2018-Jan-21 19:29N 45°20' E 012°25'0 0.0
2018-Jan-21 19:00N 45°20' E 012°25'0 0.0
2018-Jan-21 18:31N 45°20' E 012°25'0 0.1
2018-Jan-21 18:00N 45°20' E 012°25'0 0.0
2018-Jan-21 17:30N 45°20' E 012°25'0 0.0
2018-Jan-21 17:00N 45°20' E 012°25'0 0.0
2018-Jan-21 16:30N 45°20' E 012°25'0 0.0
2018-Jan-21 16:00N 45°20' E 012°25'0 0.0
2018-Jan-21 15:30N 45°20' E 012°25'0 0.0
2018-Jan-21 15:00N 45°20' E 012°25'0 0.0
2018-Jan-21 14:30N 45°20' E 012°25'0 0.1
2018-Jan-21 14:00N 45°20' E 012°25'0 0.1
2018-Jan-21 13:30N 45°20' E 012°25'0 0.1
2018-Jan-21 13:00N 45°20' E 012°25'0 0.1
2018-Jan-21 12:30N 45°20' E 012°25'0 0.0
2018-Jan-21 12:00N 45°20' E 012°25'0 0.0
2018-Jan-21 11:31N 45°20' E 012°25'0 0.0
2018-Jan-21 11:00N 45°20' E 012°25'0 0.0
2018-Jan-21 10:30N 45°20' E 012°25'0 0.0
2018-Jan-21 10:01N 45°20' E 012°25'0 0.0
2018-Jan-21 09:30N 45°20' E 012°25'0 0.0
2018-Jan-21 09:00N 45°20' E 012°25'0 0.0
2018-Jan-21 08:30N 45°20' E 012°25'0 0.1
2018-Jan-21 08:00N 45°20' E 012°25'0 0.0
2018-Jan-21 07:30N 45°20' E 012°25'0 0.0
2018-Jan-21 07:00N 45°20' E 012°25'0 0.1
2018-Jan-21 06:30N 45°20' E 012°25'0 0.0
2018-Jan-21 06:00N 45°20' E 012°25'0 0.0
2018-Jan-21 05:30N 45°20' E 012°25'0 0.0
2018-Jan-21 05:00N 45°20' E 012°25'0 0.0
2018-Jan-21 04:30N 45°20' E 012°25'0 0.0
2018-Jan-21 04:00N 45°20' E 012°25'0 0.0
2018-Jan-21 03:30N 45°20' E 012°25'0 0.0
2018-Jan-21 03:00N 45°20' E 012°25'0 0.0
2018-Jan-21 02:30N 45°20' E 012°25'0 0.0
2018-Jan-21 02:00N 45°20' E 012°25'0 0.1
2018-Jan-21 01:30N 45°20' E 012°25'0 0.1
2018-Jan-21 01:00N 45°20' E 012°25'0 0.0
2018-Jan-21 00:30N 45°20' E 012°25'0 0.0
2018-Jan-21 00:00N 45°20' E 012°25'0 0.0
2018-Jan-20 23:30N 45°20' E 012°25'0 0.0
2018-Jan-20 23:00N 45°20' E 012°25'0 0.0
2018-Jan-20 22:30N 45°20' E 012°25'0 0.1
2018-Jan-20 21:59N 45°20' E 012°25'0 0.0
2018-Jan-20 21:30N 45°20' E 012°25'0 0.2
2018-Jan-20 21:00N 45°20' E 012°26'4 8.2
2018-Jan-20 20:30N 45°17' E 012°30'5 9.6
2018-Jan-20 20:00N 45°15' E 012°36'5 9.9
2018-Jan-20 19:30N 45°12' E 012°41'510.1
2018-Jan-20 19:00N 45°09' E 012°47'4 9.0
2018-Jan-20 18:30N 45°05' E 012°50'4 7.8
2018-Jan-20 18:00N 45°01' E 012°52'4 7.7
2018-Jan-20 17:30N 44°58' E 012°55'4 7.7
2018-Jan-20 17:00N 44°54' E 012°57'4 8.3
2018-Jan-20 16:30N 44°50' E 012°60'5 9.1
2018-Jan-20 16:00N 44°52' E 013°06'5 9.3
2018-Jan-20 15:30N 44°54' E 013°12'3 6.0
2018-Jan-20 15:00N 44°57' E 013°13'5 9.8
2018-Jan-20 14:30N 45°01' E 013°09'510.2
2018-Jan-20 14:00N 45°05' E 013°04'510.1
2018-Jan-20 13:30N 45°09' E 013°02'510.2
2018-Jan-20 13:00N 45°14' E 012°60'510.2
2018-Jan-20 12:30N 45°19' E 012°58'4 8.8
2018-Jan-20 12:00N 45°19' E 012°52'510.0
2018-Jan-20 11:30N 45°18' E 012°45'612.5
2018-Jan-20 11:00N 45°16' E 012°36'611.1
2018-Jan-20 10:30N 45°16' E 012°28'713.0
2018-Jan-20 10:00N 45°20' E 012°21'4 8.7
2018-Jan-20 09:29N 45°22' E 012°15'4 8.0
2018-Jan-20 09:00N 45°26' E 012°15'1 2.3
2018-Jan-20 08:28N 45°26' E 012°13'0 0.0
2018-Jan-20 07:58N 45°26' E 012°13'0 0.0
2018-Jan-20 07:29N 45°26' E 012°13'0 0.0
2018-Jan-20 06:58N 45°26' E 012°13'0 0.0
2018-Jan-20 06:29N 45°26' E 012°13'0 0.0
2018-Jan-20 05:58N 45°26' E 012°13'0 0.0
2018-Jan-20 05:28N 45°26' E 012°13'0 0.0
2018-Jan-20 04:55N 45°26' E 012°13'0 0.0
2018-Jan-20 04:28N 45°26' E 012°13'0 0.0
2018-Jan-20 03:55N 45°26' E 012°13'0 0.0
2018-Jan-20 03:28N 45°26' E 012°13'0 0.0
2018-Jan-20 02:58N 45°26' E 012°13'0 0.0
2018-Jan-20 02:28N 45°26' E 012°13'0 0.0
2018-Jan-20 01:55N 45°26' E 012°13'0 0.0
2018-Jan-20 01:28N 45°26' E 012°13'0 0.0
2018-Jan-20 00:55N 45°26' E 012°13'0 0.0
2018-Jan-20 00:28N 45°26' E 012°13'0 0.0
2018-Jan-19 23:55N 45°26' E 012°13'0 0.0
2018-Jan-19 23:25N 45°26' E 012°13'0 0.0
2018-Jan-19 22:58N 45°26' E 012°13'0 0.0
2018-Jan-19 22:25N 45°26' E 012°13'0 0.0
2018-Jan-19 21:58N 45°26' E 012°13'0 0.0
2018-Jan-19 21:25N 45°26' E 012°13'0 0.0
2018-Jan-19 20:58N 45°26' E 012°13'0 0.0
2018-Jan-19 20:28N 45°26' E 012°13'0 0.0
2018-Jan-19 19:58N 45°26' E 012°13'0 0.0
2018-Jan-19 19:25N 45°26' E 012°13'0 0.0
2018-Jan-19 18:58N 45°26' E 012°13'0 0.0
2018-Jan-19 18:25N 45°26' E 012°13'0 0.0
2018-Jan-19 17:55N 45°26' E 012°13'0 0.0
2018-Jan-19 16:28N 45°26' E 012°13'0 0.0
2018-Jan-19 15:55N 45°26' E 012°13'0 0.0
2018-Jan-19 15:25N 45°26' E 012°13'0 0.0
2018-Jan-19 14:58N 45°26' E 012°13'0 0.0
2018-Jan-19 14:28N 45°26' E 012°13'0 0.0
2018-Jan-19 13:58N 45°26' E 012°13'0 0.0
2018-Jan-19 13:25N 45°26' E 012°13'0 0.0
2018-Jan-19 12:43N 45°26' E 012°13'0 0.0
2018-Jan-19 12:28N 45°26' E 012°13'0 0.0
2018-Jan-19 11:58N 45°26' E 012°13'0 0.0
2018-Jan-19 11:19N 45°26' E 012°13'0 0.0
2018-Jan-19 10:58N 45°26' E 012°13'0 0.0
2018-Jan-19 10:28N 45°26' E 012°13'0 0.0
2018-Jan-19 09:58N 45°26' E 012°13'0 0.0
2018-Jan-19 09:25N 45°26' E 012°13'0 0.0
2018-Jan-19 08:58N 45°26' E 012°13'0 0.0
2018-Jan-19 08:28N 45°26' E 012°13'0 0.0
2018-Jan-19 07:55N 45°26' E 012°13'0 0.0
2018-Jan-19 07:25N 45°26' E 012°13'0 0.0
2018-Jan-19 06:55N 45°26' E 012°13'0 0.5
2018-Jan-19 06:30N 45°26' E 012°13'2 3.6
2018-Jan-19 06:00N 45°26' E 012°16'5 9.3
2018-Jan-19 05:30N 45°21' E 012°16'510.3
2018-Jan-19 05:00N 45°20' E 012°23'2 3.1
2018-Jan-19 04:29N 45°20' E 012°25'0 0.1
2018-Jan-19 03:59N 45°20' E 012°25'0 0.0
2018-Jan-19 03:29N 45°20' E 012°25'0 0.0
2018-Jan-19 02:59N 45°20' E 012°25'0 0.0
2018-Jan-19 02:29N 45°20' E 012°25'0 0.0
2018-Jan-19 01:59N 45°20' E 012°25'0 0.1
2018-Jan-19 01:30N 45°20' E 012°25'3 6.1
2018-Jan-19 01:01N 45°18' E 012°29'612.5
2018-Jan-19 00:30N 45°15' E 012°36'612.5
2018-Jan-19 00:01N 45°11' E 012°43'612.0
2018-Jan-18 23:31N 45°07' E 012°49'612.7
2018-Jan-18 23:01N 45°01' E 012°52'612.6
2018-Jan-18 22:30N 44°55' E 012°56'612.6
2018-Jan-18 22:00N 44°49' E 012°59'612.7
2018-Jan-18 21:30N 44°43' E 013°02'712.8
2018-Jan-18 21:00N 44°37' E 013°05'612.9
2018-Jan-18 20:31N 44°31' E 013°08'712.8
2018-Jan-18 19:56N 44°24' E 013°12'  

Dump ship's entire track history